Time;durP1;ratioP1;P1;durP2;ratioP2;P2;SDS_P1;SDS_P2;PMS_P1;PMS_P2;Temp;Humidity;BMP_temperature;BMP_pressure;BME280_temperature;BME280_humidity;BME280_pressure;Samples;Min_cycle;Max_cycle;Signal;HPM_P1;HPM_P2
2022/12/04 00:01:34;;;;;;;30.67;15.73;;;;;;;;;;5033090;28;20459;-73
2022/12/04 00:04:02;;;;;;;25.93;14.53;;;;;;;;;;5032071;28;20440;-74
2022/12/04 00:06:29;;;;;;;26.00;14.33;;;1.50;99.90;;;;;;5033138;28;20942;-75
2022/12/04 00:08:56;;;;;;;52.57;30.83;;;;;;;;;;5032673;28;20486;-75
2022/12/04 00:11:25;;;;;;;23.93;13.40;;;1.50;99.90;;;;;;5033205;28;20854;-73
2022/12/04 00:13:52;;;;;;;37.20;18.57;;;;;;;;;;5044037;28;20461;-76
2022/12/04 00:16:22;;;;;;;30.30;15.17;;;1.50;99.90;;;;;;5050507;28;20486;-76
2022/12/04 00:18:49;;;;;;;31.20;16.90;;;;;;;;;;5049741;28;20926;-74
2022/12/04 00:21:17;;;;;;;27.20;15.67;;;1.40;99.90;;;;;;5049955;28;20449;-74
2022/12/04 00:23:45;;;;;;;31.90;14.90;;;;;;;;;;5050803;28;20457;-73
2022/12/04 00:26:14;;;;;;;24.73;11.33;;;1.40;99.90;;;;;;5052352;28;20454;-72
2022/12/04 00:28:42;;;;;;;32.30;17.20;;;1.40;99.90;;;;;;5032461;28;20451;-74
2022/12/04 00:31:11;;;;;;;30.00;14.77;;;1.50;99.90;;;;;;5032229;28;21003;-73
2022/12/04 00:33:39;;;;;;;31.30;14.20;;;1.50;99.90;;;;;;5031208;28;20450;-73
2022/12/04 00:36:09;;;;;;;30.43;16.00;;;1.50;99.90;;;;;;5032397;28;20935;-74
2022/12/04 00:38:36;;;;;;;25.03;16.60;;;;;;;;;;5032542;28;20455;-77
2022/12/04 00:41:04;;;;;;;27.90;15.63;;;1.40;99.90;;;;;;5032433;28;20451;-73
2022/12/04 00:43:31;;;;;;;30.00;14.63;;;1.50;99.90;;;;;;5032238;28;20451;-77
2022/12/04 00:45:59;;;;;;;29.40;14.67;;;;;;;;;;5032388;28;20463;-76
2022/12/04 00:48:26;;;;;;;27.20;14.30;;;;;;;;;;5031550;28;20447;-73
2022/12/04 00:50:54;;;;;;;25.60;13.50;;;1.50;99.90;;;;;;5032817;28;20449;-73
2022/12/04 00:53:22;;;;;;;27.40;14.10;;;;;;;;;;5032657;28;20457;-75
2022/12/04 00:55:49;;;;;;;18.97;10.57;;;;;;;;;;5032700;28;20443;-77
2022/12/04 00:58:16;;;;;;;29.40;15.20;;;;;;;;;;5032590;28;20495;-73
2022/12/04 01:00:43;;;;;;;28.67;14.10;;;;;;;;;;5032714;28;20451;-73
2022/12/04 01:03:10;;;;;;;31.70;13.70;;;;;;;;;;5031598;28;20451;-74
2022/12/04 01:05:39;;;;;;;23.90;11.70;;;1.40;99.90;;;;;;5032644;28;20459;-76
2022/12/04 01:08:07;;;;;;;24.43;11.90;;;1.50;99.90;;;;;;5032620;28;20455;-74
2022/12/04 01:10:34;;;;;;;22.13;13.33;;;;;;;;;;5032318;28;20483;-74
2022/12/04 01:13:01;;;;;;;32.80;16.27;;;;;;;;;;5032553;28;20454;-74
2022/12/04 01:15:29;;;;;;;27.57;13.10;;;;;;;;;;5032507;28;20921;-73
2022/12/04 01:17:56;;;;;;;23.60;13.00;;;;;;;;;;5031252;28;20491;-73
2022/12/04 01:20:23;;;;;;;24.40;13.03;;;;;;;;;;5032476;28;20477;-77
2022/12/04 01:22:50;;;;;;;24.07;13.17;;;;;;;;;;5032407;28;20451;-76
2022/12/04 01:25:18;;;;;;;26.90;13.00;;;1.60;99.90;;;;;;5032302;28;20454;-75
2022/12/04 01:27:45;;;;;;;30.43;17.40;;;;;;;;;;5032479;28;20462;-73
2022/12/04 01:30:13;;;;;;;24.87;13.87;;;;;;;;;;5032512;28;20462;-76
2022/12/04 01:32:40;;;;;;;21.10;10.73;;;;;;;;;;5032584;28;20447;-73
2022/12/04 01:35:07;;;;;;;21.00;11.80;;;;;;;;;;5036153;28;20448;-77
2022/12/04 01:37:34;;;;;;;16.43;9.70;;;;;;;;;;5036024;28;20855;-74
2022/12/04 01:40:02;;;;;;;23.90;13.90;;;;;;;;;;5036072;28;20957;-77
2022/12/04 01:42:30;;;;;;;21.43;10.37;;;1.50;99.90;;;;;;5036105;28;20455;-76
2022/12/04 01:45:33;;;;;;;21.70;12.50;;;1.50;99.90;;;;;;5035806;28;20468;-74
2022/12/04 01:48:08;;;;;;;23.17;12.50;;;1.10;99.90;;;;;;5034648;28;20450;-74
2022/12/04 01:50:35;;;;;;;23.67;12.20;;;;;;;;;;5035905;28;20820;-73
2022/12/04 01:53:02;;;;;;;21.90;10.57;;;;;;;;;;5035820;28;20447;-75
2022/12/04 01:55:30;;;;;;;20.73;11.50;;;1.50;99.90;;;;;;5035822;28;20447;-77
2022/12/04 01:57:59;;;;;;;21.17;11.07;;;1.50;99.90;;;;;;5035667;28;20494;-75
2022/12/04 02:00:26;;;;;;;21.80;11.00;;;;;;;;;;5035639;28;20463;-73
2022/12/04 02:02:53;;;;;;;25.10;11.83;;;;;;;;;;5034302;28;20452;-74
2022/12/04 02:05:21;;;;;;;22.50;11.67;;;1.40;99.90;;;;;;5035591;28;20801;-73
2022/12/04 02:07:51;;;;;;;16.70;11.87;;;1.40;99.90;;;;;;5035553;28;20451;-75
2022/12/04 02:10:23;;;;;;;19.80;11.70;;;1.50;99.90;;;;;;5035336;28;20475;-75
2022/12/04 02:12:55;;;;;;;25.33;11.37;;;1.40;99.90;;;;;;5035419;28;20463;-76
2022/12/04 02:15:29;;;;;;;21.30;11.60;;;1.50;99.90;;;;;;5035254;28;20447;-73
2022/12/04 02:18:03;;;;;;;21.57;12.00;;;3.60;99.90;;;;;;5034054;28;20491;-75
2022/12/04 02:20:36;;;;;;;25.43;12.67;;;1.50;99.90;;;;;;5035206;28;20451;-74
2022/12/04 02:23:25;;;;;;;21.17;11.93;;;1.50;99.90;;;;;;5035194;28;20447;-76
2022/12/04 02:26:01;;;;;;;20.10;10.30;;;1.60;99.90;;;;;;5035086;28;20457;-74
2022/12/04 02:28:35;;;;;;;16.57;9.80;;;1.60;99.90;;;;;;5035091;28;20451;-74
2022/12/04 02:31:04;;;;;;;23.63;12.60;;;1.60;99.90;;;;;;5035084;28;20458;-75
2022/12/04 02:33:36;;;;;;;20.67;12.10;;;1.50;99.90;;;;;;5033848;28;20443;-74
2022/12/04 02:36:08;;;;;;;24.07;12.50;;;1.60;99.90;;;;;;5035003;28;20451;-74
2022/12/04 02:38:40;;;;;;;19.63;10.57;;;1.60;99.90;;;;;;5034883;28;20498;-74
2022/12/04 02:41:11;;;;;;;21.23;11.77;;;1.60;99.90;;;;;;5035006;28;20796;-76
2022/12/04 02:43:44;;;;;;;31.07;15.20;;;1.60;99.90;;;;;;5034351;28;20467;-78
2022/12/04 02:46:16;;;;;;;23.13;12.00;;;1.60;99.90;;;;;;5034750;28;20451;-74
2022/12/04 02:48:46;;;;;;;22.97;13.90;;;1.60;99.90;;;;;;5033715;28;20560;-75
2022/12/04 02:51:16;;;;;;;24.90;13.10;;;1.60;99.90;;;;;;5034769;28;20551;-75
2022/12/04 02:53:47;;;;;;;28.00;14.97;;;1.60;99.90;;;;;;5034802;28;20523;-76
2022/12/04 02:56:17;;;;;;;34.03;16.33;;;1.60;99.90;;;;;;5035451;28;20455;-74
2022/12/04 02:58:49;;;;;;;20.47;10.67;;;1.60;99.90;;;;;;5034274;28;20518;-74
2022/12/04 03:01:20;;;;;;;26.13;13.30;;;1.60;99.90;;;;;;5034583;28;20459;-78
2022/12/04 03:03:51;;;;;;;30.70;14.07;;;1.60;99.90;;;;;;5033165;28;20451;-78
2022/12/04 03:06:20;;;;;;;25.50;12.77;;;1.60;99.90;;;;;;5034481;28;20462;-75
2022/12/04 03:08:52;;;;;;;27.00;13.60;;;1.60;99.90;;;;;;5034203;28;20483;-73
2022/12/04 03:11:19;;;;;;;27.57;13.93;;;;;;;;;;5034276;28;20460;-73
2022/12/04 03:13:54;;;;;;;23.40;12.40;;;1.60;99.90;;;;;;5034106;28;20470;-74
2022/12/04 03:16:24;;;;;;;23.73;14.43;;;1.50;99.90;;;;;;5034244;28;20469;-76
2022/12/04 03:18:56;;;;;;;25.00;12.40;;;1.60;99.90;;;;;;5032831;28;20502;-76
2022/12/04 03:21:28;;;;;;;23.80;11.83;;;1.60;99.90;;;;;;5034201;28;20450;-77
2022/12/04 03:23:59;;;;;;;25.40;13.77;;;1.60;99.90;;;;;;5034020;28;20440;-75
2022/12/04 03:26:31;;;;;;;27.00;14.40;;;1.70;99.90;;;;;;5034081;28;20959;-75
2022/12/04 03:29:07;;;;;;;23.50;12.50;;;1.50;99.90;;;;;;5033919;28;20478;-73
2022/12/04 03:31:42;;;;;;;27.43;13.20;;;1.60;99.90;;;;;;5033984;28;20439;-74
2022/12/04 03:34:12;;;;;;;23.97;12.97;;;1.50;99.90;;;;;;5032686;28;20451;-74
2022/12/04 03:36:45;;;;;;;23.90;13.03;;;1.50;99.90;;;;;;5033674;28;20455;-77
2022/12/04 03:39:17;;;;;;;27.23;13.17;;;1.50;99.90;;;;;;5033889;28;20451;-75
2022/12/04 03:41:57;;;;;;;30.17;13.00;;;1.50;99.90;;;;;;5033730;28;20931;-74
2022/12/04 03:44:32;;;;;;;24.00;12.80;;;1.60;99.90;;;;;;5033808;28;20821;-74
2022/12/04 03:47:05;;;;;;;18.13;10.97;;;1.60;99.90;;;;;;5033678;28;20926;-77
2022/12/04 03:49:40;;;;;;;28.23;13.07;;;1.60;99.90;;;;;;5032535;28;20444;-74
2022/12/04 03:52:13;;;;;;;18.23;9.33;;;1.50;99.90;;;;;;5033709;28;20895;-76
2022/12/04 03:54:44;;;;;;;22.50;11.30;;;1.50;99.90;;;;;;5033574;28;20458;-75
2022/12/04 03:57:16;;;;;;;20.90;10.13;;;1.40;99.90;;;;;;5033401;28;20486;-76
2022/12/04 03:59:49;;;;;;;23.20;9.97;;;1.40;99.90;;;;;;5033367;28;20447;-77
2022/12/04 04:02:19;;;;;;;16.13;8.80;;;1.50;99.90;;;;;;5033642;28;20461;-74
2022/12/04 04:04:51;;;;;;;21.73;11.73;;;1.40;99.90;;;;;;5032998;28;20444;-75
2022/12/04 04:07:24;;;;;;;22.17;11.40;;;1.40;99.90;;;;;;5033288;28;20456;-75
2022/12/04 04:09:55;;;;;;;24.47;11.27;;;1.50;99.90;;;;;;5033006;28;20486;-78
2022/12/04 04:12:27;;;;;;;18.07;8.40;;;1.50;99.90;;;;;;5033411;28;20452;-75
2022/12/04 04:26:19;;;;;;;28.43;12.07;;;;;;;;;;5052772;28;20486;-76
2022/12/04 04:28:46;;;;;;;82.60;36.03;;;;;;;;;;5052883;28;21008;-74
2022/12/04 04:31:22;;;;;;;19.03;10.80;;;1.50;99.90;;;;;;5052958;28;20553;-73
2022/12/04 04:33:56;;;;;;;20.80;9.53;;;1.40;99.90;;;;;;5051618;28;20460;-74
2022/12/04 04:36:31;;;;;;;25.90;14.10;;;1.40;99.90;;;;;;5052913;28;20469;-74
2022/12/04 04:39:01;;;;;;;24.07;9.90;;;1.40;99.90;;;;;;5052684;28;20492;-73
2022/12/04 04:41:34;;;;;;;16.90;9.90;;;1.30;99.90;;;;;;5052621;28;20454;-78
2022/12/04 04:44:11;;;;;;;18.73;8.50;;;1.40;99.90;;;;;;5052658;28;20821;-74
2022/12/04 04:46:46;;;;;;;16.37;9.47;;;1.40;99.90;;;;;;5052671;28;20450;-74
2022/12/04 04:49:15;;;;;;;20.00;10.03;;;1.30;99.90;;;;;;5051533;28;20442;-73
2022/12/04 04:51:44;;;;;;;18.70;9.83;;;1.30;99.90;;;;;;5052427;28;20952;-73
2022/12/04 04:54:13;;;;;;;15.40;8.50;;;1.40;99.90;;;;;;5052594;28;20446;-75
2022/12/04 04:56:41;;;;;;;13.37;7.50;;;1.40;99.90;;;;;;5052624;28;20810;-77
2022/12/04 04:59:08;;;;;;;22.40;9.07;;;;;;;;;;5052595;28;20513;-76
2022/12/04 05:01:36;;;;;;;17.27;8.73;;;;;;;;;;5052541;28;20960;-74
2022/12/04 05:04:05;;;;;;;17.53;9.20;;;1.40;99.90;;;;;;5051247;28;20442;-74
2022/12/04 05:06:32;;;;;;;15.77;8.97;;;;;;;;;;5052453;28;20461;-75
2022/12/04 05:08:59;;;;;;;17.67;7.50;;;;;;;;;;5056055;28;20474;-74
2022/12/04 05:11:26;;;;;;;18.27;8.97;;;;;;;;;;5056476;28;20934;-76
2022/12/04 05:13:53;;;;;;;19.17;8.03;;;;;;;;;;5056363;28;20464;-75
2022/12/04 05:16:20;;;;;;;16.80;9.37;;;;;;;;;;5056501;28;20443;-74
2022/12/04 05:21:30;;;;;;;13.53;7.87;;;1.40;99.90;;;;;;5055886;28;20500;-74
2022/12/04 05:23:57;;;;;;;13.73;7.43;;;;;;;;;;5056233;28;20453;-73
2022/12/04 05:26:24;;;;;;;17.73;8.63;;;;;;;;;;5056220;28;20438;-72
2022/12/04 05:28:52;;;;;;;17.23;9.03;;;;;;;;;;5056203;28;20793;-76
2022/12/04 05:31:19;;;;;;;16.30;8.70;;;;;;;;;;5055936;28;20454;-74
2022/12/04 05:33:46;;;;;;;19.43;10.27;;;;;;;;;;5054823;28;20820;-75
2022/12/04 05:36:13;;;;;;;11.97;7.10;;;;;;;;;;5056099;28;20447;-73
2022/12/04 05:38:41;;;;;;;14.77;7.57;;;1.30;99.90;;;;;;5055962;28;20502;-73
2022/12/04 05:41:08;;;;;;;16.57;8.23;;;;;;;;;;5056063;28;20451;-73
2022/12/04 05:43:36;;;;;;;18.33;8.90;;;;;;;;;;5055939;28;20958;-74
2022/12/04 05:46:04;;;;;;;14.87;7.40;;;1.30;99.90;;;;;;5055835;28;20477;-74
2022/12/04 05:48:32;;;;;;;14.43;7.87;;;1.20;99.90;;;;;;5054753;28;20450;-73
2022/12/04 05:50:59;;;;;;;13.47;7.47;;;;;;;;;;5055854;28;20961;-74
2022/12/04 05:53:26;;;;;;;14.50;8.87;;;;;;;;;;5057191;28;20446;-76
2022/12/04 05:55:59;;;;;;;18.63;9.20;;;1.40;99.90;;;;;;5058584;28;20442;-78
2022/12/04 05:58:26;;;;;;;18.00;9.80;;;;;;;;;;5055568;28;20496;-74
2022/12/04 06:00:53;;;;;;;17.63;10.10;;;;;;;;;;5055800;28;20453;-76
2022/12/04 06:03:21;;;;;;;16.93;8.93;;;;;;;;;;5054370;28;20434;-73
2022/12/04 06:05:48;;;;;;;14.40;8.20;;;;;;;;;;5055622;28;20458;-72
2022/12/04 06:08:15;;;;;;;20.13;10.40;;;;;;;;;;5055684;28;20443;-74
2022/12/04 06:10:42;;;;;;;22.27;8.93;;;;;;;;;;5055564;28;20453;-77
2022/12/04 06:13:11;;;;;;;17.70;9.50;;;;;;;;;;5055527;28;20451;-75
2022/12/04 06:15:38;;;;;;;19.53;10.20;;;;;;;;;;5055564;28;20549;-73
2022/12/04 06:18:05;;;;;;;22.70;11.60;;;;;;;;;;5053960;28;20508;-74
2022/12/04 06:20:32;;;;;;;15.70;9.20;;;;;;;;;;5054298;28;20817;-77
2022/12/04 06:22:59;;;;;;;109.37;38.00;;;;;;;;;;5055290;28;20837;-73
2022/12/04 06:25:27;;;;;;;33.30;14.90;;;;;;;;;;5055187;28;20458;-76
2022/12/04 06:27:54;;;;;;;23.43;11.53;;;;;;;;;;5055332;28;20458;-73
2022/12/04 06:30:22;;;;;;;44.47;17.40;;;;;;;;;;5055052;28;20821;-74
2022/12/04 06:32:49;;;;;;;19.67;10.33;;;;;;;;;;5053750;28;20817;-74
2022/12/04 06:35:16;;;;;;;49.67;22.40;;;;;;;;;;5055033;28;20457;-73
2022/12/04 06:37:43;;;;;;;25.23;15.70;;;;;;;;;;5054905;28;20446;-74
2022/12/04 06:40:11;;;;;;;16.20;10.33;;;;;;;;;;5054800;28;20450;-74
2022/12/04 06:42:38;;;;;;;18.20;10.10;;;;;;;;;;5054763;28;20477;-73
2022/12/04 06:45:06;;;;;;;21.63;12.23;;;1.50;99.90;;;;;;5054801;28;20454;-75
2022/12/04 06:47:36;;;;;;;24.63;11.93;;;;;;;;;;5053475;28;20961;-78
2022/12/04 06:50:03;;;;;;;21.20;11.27;;;;;;;;;;5054764;28;20443;-77
2022/12/04 06:52:32;;;;;;;21.10;11.00;;;1.50;99.90;;;;;;5054660;28;20454;-78
2022/12/04 06:54:59;;;;;;;23.47;10.30;;;;;;;;;;5054660;28;20469;-74
2022/12/04 06:57:26;;;;;;;20.30;9.90;;;;;;;;;;5054647;28;20439;-76
2022/12/04 06:59:53;;;;;;;15.87;9.17;;;;;;;;;;5054509;28;20498;-76
2022/12/04 07:02:20;;;;;;;16.33;8.90;;;;;;;;;;5054098;28;20443;-75
2022/12/04 07:04:49;;;;;;;16.50;9.37;;;1.50;99.90;;;;;;5054013;28;20442;-78
2022/12/04 07:07:16;;;;;;;19.37;9.83;;;;;;;;;;5054249;28;20446;-75
2022/12/04 07:09:44;;;;;;;14.47;8.40;;;;;;;;;;5054268;28;20482;-78
2022/12/04 07:12:11;;;;;;;18.73;10.07;;;;;;;;;;5054383;28;20454;-77
2022/12/04 07:14:38;;;;;;;19.83;10.07;;;;;;;;;;5054415;28;20453;-78
2022/12/04 07:17:05;;;;;;;22.17;9.53;;;;;;;;;;5054263;28;20461;-76
2022/12/04 07:19:32;;;;;;;17.17;9.07;;;;;;;;;;5052951;28;20494;-78
2022/12/04 07:22:00;;;;;;;18.90;9.43;;;1.50;99.90;;;;;;5054103;28;20443;-78
2022/12/04 07:24:27;;;;;;;19.30;9.50;;;;;;;;;;5054076;28;20454;-76
2022/12/04 07:26:54;;;;;;;18.07;9.43;;;;;;;;;;5054293;28;20803;-77
2022/12/04 07:29:21;;;;;;;19.20;9.40;;;;;;;;;;5054095;28;20457;-77
2022/12/04 07:31:49;;;;;;;22.37;10.27;;;;;;;;;;5053673;28;20454;-78
2022/12/04 07:34:16;;;;;;;22.93;10.23;;;;;;;;;;5052735;28;20447;-77
2022/12/04 07:36:43;;;;;;;23.20;11.20;;;;;;;;;;5054009;28;20457;-79
2022/12/04 07:39:11;;;;;;;21.30;10.67;;;1.60;99.90;;;;;;5054089;28;20486;-74
2022/12/04 07:41:38;;;;;;;18.20;9.77;;;;;;;;;;5053472;28;20565;-75
2022/12/04 07:44:05;;;;;;;20.00;9.57;;;;;;;;;;5053780;28;20457;-76
2022/12/04 07:46:33;;;;;;;21.20;9.93;;;;;;;;;;5053661;28;20451;-75
2022/12/04 07:49:00;;;;;;;21.10;9.27;;;;;;;;;;5052033;28;20439;-80
2022/12/04 07:51:28;;;;;;;15.80;8.80;;;1.60;99.90;;;;;;5053615;28;20439;-74
2022/12/04 07:53:57;;;;;;;22.60;11.07;;;;;;;;;;5053477;28;20450;-75
2022/12/04 07:56:25;;;;;;;21.03;10.17;;;1.60;99.90;;;;;;5053550;28;20451;-74
2022/12/04 07:58:52;;;;;;;23.70;11.43;;;;;;;;;;5053311;28;20485;-74
2022/12/04 08:01:21;;;;;;;23.77;13.63;;;1.70;99.90;;;;;;5053566;28;20477;-75
2022/12/04 08:03:50;;;;;;;21.43;11.20;;;1.70;99.90;;;;;;5051678;28;20889;-74
2022/12/04 08:06:17;;;;;;;20.80;11.20;;;;;;;;;;5053313;28;20453;-75
2022/12/04 08:08:45;;;;;;;23.17;10.43;;;;;;;;;;5053202;28;20475;-76
2022/12/04 08:11:15;;;;;;;19.53;8.97;;;1.70;99.90;;;;;;5053218;28;20466;-79
2022/12/04 08:13:44;;;;;;;14.90;8.30;;;1.80;99.90;;;;;;5053074;28;20541;-74
2022/12/04 08:16:12;;;;;;;16.67;9.33;;;1.80;99.90;;;;;;5053043;28;20443;-81
2022/12/04 08:18:40;;;;;;;18.87;8.87;;;;;;;;;;5051967;28;20496;-75
2022/12/04 08:21:08;;;;;;;23.47;10.70;;;1.90;99.90;;;;;;5053203;28;20450;-75
2022/12/04 08:23:36;;;;;;;16.60;9.07;;;;;;;;;;5053068;28;20442;-76
2022/12/04 08:26:04;;;;;;;27.10;11.10;;;1.90;99.90;;;;;;5053137;28;20442;-81
2022/12/04 08:28:32;;;;;;;21.17;9.50;;;1.90;99.90;;;;;;5053010;28;20806;-77
2022/12/04 08:31:04;;;;;;;23.17;10.70;;;2.00;99.90;;;;;;5052930;28;20443;-78
2022/12/04 08:33:32;;;;;;;20.20;9.40;;;;;;;;;;5051608;28;20482;-81
2022/12/04 08:35:59;;;;;;;19.40;10.37;;;;;;;;;;5052832;28;20481;-74
2022/12/04 08:38:26;;;;;;;16.83;10.00;;;;;;;;;;5052794;28;20898;-74
2022/12/04 08:40:53;;;;;;;16.33;7.67;;;;;;;;;;5052902;28;20455;-75
2022/12/04 08:43:20;;;;;;;17.73;9.47;;;;;;;;;;5052232;28;20453;-81
2022/12/04 08:45:55;;;;;;;27.43;9.77;;;1.90;99.90;;;;;;5052839;28;20446;-75
2022/12/04 08:48:23;;;;;;;19.63;9.60;;;1.90;99.90;;;;;;5051647;28;20465;-75
2022/12/04 08:50:51;;;;;;;18.27;9.83;;;;;;;;;;5052634;28;20442;-74
2022/12/04 08:53:18;;;;;;;40.20;19.73;;;;;;;;;;5052715;28;20439;-82
2022/12/04 08:55:45;;;;;;;26.53;15.10;;;;;;;;;;5052677;28;20791;-81
2022/12/04 08:58:12;;;;;;;21.20;11.40;;;;;;;;;;5052702;28;20460;-77
2022/12/04 09:00:40;;;;;;;16.20;10.60;;;;;;;;;;5052696;28;20929;-74
2022/12/04 09:03:07;;;;;;;16.77;9.67;;;;;;;;;;5051442;28;20473;-75
2022/12/04 09:05:35;;;;;;;22.60;11.53;;;1.90;99.90;;;;;;5052737;28;20458;-75
2022/12/04 09:08:03;;;;;;;15.33;8.00;;;2.00;99.90;;;;;;5052559;28;20968;-75
2022/12/04 09:10:30;;;;;;;19.07;9.07;;;;;;;;;;5052308;28;20485;-75
2022/12/04 09:12:57;;;;;;;16.23;8.80;;;;;;;;;;5052616;28;20812;-75
2022/12/04 09:15:24;;;;;;;18.43;11.37;;;;;;;;;;5052508;28;20450;-75
2022/12/04 09:17:51;;;;;;;16.40;10.63;;;;;;;;;;5051210;28;20442;-74
2022/12/04 09:20:18;;;;;;;13.90;9.10;;;;;;;;;;5052313;28;20857;-76
2022/12/04 09:22:47;;;;;;;24.80;13.27;;;2.00;99.90;;;;;;5052420;28;20442;-82
2022/12/04 09:25:14;;;;;;;20.63;10.90;;;;;;;;;;5052712;28;20450;-78
2022/12/04 09:27:42;;;;;;;17.07;9.53;;;;;;;;;;5052526;28;20446;-84
2022/12/04 09:30:10;;;;;;;14.30;7.53;;;2.10;99.90;;;;;;5052522;28;20463;-79
2022/12/04 09:32:38;;;;;;;21.50;8.90;;;;;;;;;;5051139;28;20446;-75
2022/12/04 09:35:05;;;;;;;18.97;10.17;;;;;;;;;;5052640;28;20805;-75
2022/12/04 09:37:33;;;;;;;23.83;10.63;;;;;;;;;;5052288;28;20456;-82
2022/12/04 09:40:01;;;;;;;11.97;6.77;;;2.20;99.90;;;;;;5052313;28;20581;-75
2022/12/04 09:42:41;;;;;;;18.60;9.90;;;2.20;99.90;;;;;;5052195;28;20831;-74
2022/12/04 09:45:13;;;;;;;15.93;8.53;;;2.10;99.90;;;;;;5052348;28;20438;-77
2022/12/04 09:47:44;;;;;;;19.40;8.63;;;2.10;99.90;;;;;;5051101;28;21398;-76
2022/12/04 09:50:18;;;;;;;16.80;10.27;;;2.20;99.90;;;;;;5052025;28;20457;-76
2022/12/04 09:52:54;;;;;;;15.43;8.17;;;2.20;99.90;;;;;;5052326;28;20487;-75
2022/12/04 09:55:26;;;;;;;17.63;10.23;;;2.20;99.90;;;;;;5041433;28;20451;-76
2022/12/04 09:57:57;;;;;;;17.50;8.87;;;2.20;99.90;;;;;;5035467;28;20458;-79
2022/12/04 10:00:25;;;;;;;19.50;9.23;;;;;;;;;;5044947;28;20497;-83
2022/12/04 10:02:56;;;;;;;19.47;9.53;;;2.20;99.90;;;;;;5054124;28;20446;-87
2022/12/04 10:05:33;;;;;;;24.20;12.57;;;2.30;99.90;;;;;;5055390;28;20457;-87
2022/12/04 10:08:06;;;;;;;19.33;9.50;;;2.30;99.90;;;;;;5049168;28;20448;-74
2022/12/04 10:10:38;;;;;;;16.93;9.30;;;2.30;99.90;;;;;;5054865;28;20474;-78
2022/12/04 10:13:18;;;;;;;21.57;10.50;;;2.30;99.90;;;;;;5038691;28;20443;-85
2022/12/04 10:15:53;;;;;;;20.70;11.80;;;2.40;99.90;;;;;;5035261;28;20455;-75
2022/12/04 10:18:29;;;;;;;23.03;10.73;;;2.30;99.90;;;;;;5033736;28;20443;-77
2022/12/04 10:21:23;;;;;;;20.30;10.40;;;2.30;99.90;;;;;;5034886;28;20970;-74
2022/12/04 10:23:59;;;;;;;17.20;9.67;;;2.30;99.90;;;;;;5033111;28;20459;-75
2022/12/04 10:26:30;;;;;;;21.63;10.30;;;2.30;99.90;;;;;;5034763;28;20554;-76
2022/12/04 10:29:01;;;;;;;20.73;9.47;;;2.30;99.90;;;;;;5034832;28;20443;-84
2022/12/04 10:31:29;;;;;;;18.53;11.03;;;2.40;99.90;;;;;;5034853;28;20455;-76
2022/12/04 10:34:01;;;;;;;22.93;12.17;;;2.40;99.90;;;;;;5033305;28;20822;-75
2022/12/04 10:36:31;;;;;;;20.20;10.23;;;2.30;99.90;;;;;;5034717;28;20446;-74
2022/12/04 10:39:03;;;;;;;14.83;8.77;;;2.30;99.90;;;;;;5034729;28;20498;-79
2022/12/04 10:41:38;;;;;;;24.47;13.90;;;2.30;99.90;;;;;;5034624;28;20467;-75
2022/12/04 10:44:05;;;;;;;19.40;10.17;;;;;;;;;;5034590;28;20454;-75
2022/12/04 10:46:34;;;;;;;22.53;12.53;;;2.40;99.90;;;;;;5034435;28;20439;-75
2022/12/04 10:49:07;;;;;;;19.70;10.60;;;2.40;99.90;;;;;;5033268;28;20797;-77
2022/12/04 10:51:39;;;;;;;28.40;17.97;;;2.40;99.90;;;;;;5034682;28;20807;-86
2022/12/04 10:54:17;;;;;;;23.23;12.97;;;2.40;99.90;;;;;;5031624;28;20443;-79
2022/12/04 10:56:53;;;;;;;22.70;11.63;;;2.40;99.90;;;;;;5034237;28;20947;-76
2022/12/04 10:59:20;;;;;;;57.83;32.80;;;;;;;;;;5034315;28;20494;-85
2022/12/04 11:01:47;;;;;;;25.60;13.63;;;;;;;;;;5034341;28;20448;-74
2022/12/04 11:04:22;;;;;;;21.53;11.90;;;2.40;99.90;;;;;;5032839;28;20447;-74
2022/12/04 11:06:51;;;;;;;19.00;10.47;;;2.40;99.90;;;;;;5033765;28;20451;-75
2022/12/04 11:09:22;;;;;;;17.57;10.47;;;2.40;99.90;;;;;;5033865;28;20483;-86
2022/12/04 11:11:49;;;;;;;22.80;11.70;;;;;;;;;;5034050;28;20818;-75
2022/12/04 11:14:20;;;;;;;23.70;12.27;;;2.40;99.90;;;;;;5034150;28;20451;-81
2022/12/04 11:16:48;;;;;;;20.07;11.60;;;2.50;99.90;;;;;;5034087;28;20448;-82
2022/12/04 11:19:22;;;;;;;23.40;12.30;;;3.40;99.90;;;;;;5032815;28;20570;-75
2022/12/04 11:21:50;;;;;;;21.20;11.90;;;;;;;;;;5033890;28;20447;-74
2022/12/04 11:24:23;;;;;;;21.87;12.30;;;2.50;99.90;;;;;;5034011;28;20443;-80
2022/12/04 11:26:52;;;;;;;27.47;15.10;;;2.50;99.90;;;;;;5033799;28;20443;-75
2022/12/04 11:29:28;;;;;;;40.17;26.13;;;2.40;99.90;;;;;;5033574;28;20469;-82
2022/12/04 11:31:56;;;;;;;30.57;18.73;;;;;;;;;;5033611;28;20939;-76
2022/12/04 11:34:28;;;;;;;38.90;22.57;;;2.40;99.90;;;;;;5032351;28;20452;-74
2022/12/04 11:36:57;;;;;;;33.10;17.70;;;2.40;99.90;;;;;;5033788;28;20447;-76
2022/12/04 11:39:29;;;;;;;22.50;13.30;;;2.40;99.90;;;;;;5033744;28;20486;-81
2022/12/04 11:42:00;;;;;;;29.73;19.00;;;;;;;;;;5034840;28;20471;-76
2022/12/04 11:44:31;;;;;;;28.33;15.33;;;2.40;99.90;;;;;;5035748;28;20454;-82
2022/12/04 11:47:01;;;;;;;32.23;17.80;;;2.40;99.90;;;;;;5053332;28;20450;-80
2022/12/04 11:49:30;;;;;;;51.53;27.30;;;2.50;99.90;;;;;;5052382;28;20938;-76
2022/12/04 11:52:09;;;;;;;36.20;21.90;;;2.50;99.90;;;;;;5053416;28;20454;-81
2022/12/04 11:54:45;;;;;;;22.90;13.77;;;2.30;99.90;;;;;;5049966;28;20925;-78
2022/12/04 11:57:23;;;;;;;21.47;13.27;;;2.40;99.90;;;;;;5052991;28;20480;-73
2022/12/04 12:00:04;;;;;;;27.33;13.80;;;2.40;99.90;;;;;;5052975;28;20586;-76
2022/12/04 12:02:41;;;;;;;20.60;12.57;;;2.50;99.90;;;;;;5051172;28;20458;-81
2022/12/04 12:05:27;;;;;;;22.57;14.10;;;2.40;99.90;;;;;;5052365;28;20809;-81
2022/12/04 12:08:03;;;;;;;22.87;12.90;;;2.40;99.90;;;;;;5049958;28;20447;-83
2022/12/04 12:10:35;;;;;;;24.03;13.07;;;2.50;99.90;;;;;;5053477;28;20540;-76
2022/12/04 12:13:12;;;;;;;23.50;12.10;;;2.70;99.90;;;;;;5053413;28;20459;-78
2022/12/04 12:15:48;;;;;;;25.77;13.80;;;2.50;99.90;;;;;;5052980;28;20443;-78
2022/12/04 12:18:32;;;;;;;31.40;16.80;;;2.40;99.90;;;;;;5052703;28;20457;-76
2022/12/04 12:21:07;;;;;;;22.97;13.50;;;2.40;99.90;;;;;;5053856;28;20505;-75
2022/12/04 12:23:46;;;;;;;26.57;13.17;;;2.50;99.90;;;;;;5059776;28;20442;-75
2022/12/04 12:26:15;;;;;;;24.43;12.87;;;2.50;99.90;;;;;;5036205;28;20441;-77
2022/12/04 12:29:10;;;;;;;28.77;13.97;;;2.40;99.90;;;;;;5056400;28;20485;-78
2022/12/04 12:32:03;;;;;;;24.97;13.60;;;2.40;99.90;;;;;;5056072;28;20490;-74
2022/12/04 12:34:36;;;;;;;25.10;13.03;;;2.50;99.90;;;;;;5051402;28;20525;-77
2022/12/04 12:37:11;;;;;;;30.73;13.93;;;2.40;99.90;;;;;;5052132;28;20508;-81
2022/12/04 12:39:40;;;;;;;23.83;12.70;;;2.30;99.90;;;;;;5052532;28;20490;-74
2022/12/04 12:42:16;;;;;;;30.40;13.50;;;2.20;99.90;;;;;;5052582;28;20461;-74
2022/12/04 12:44:53;;;;;;;23.60;12.70;;;2.30;99.90;;;;;;5052497;28;20446;-88
2022/12/04 12:47:25;;;;;;;23.50;12.07;;;2.30;99.90;;;;;;5052594;28;20451;-82
2022/12/04 12:49:57;;;;;;;25.17;13.10;;;2.30;99.90;;;;;;5052714;28;20450;-85
2022/12/04 12:52:30;;;;;;;27.83;14.53;;;2.30;99.90;;;;;;5056932;28;20964;-77
2022/12/04 12:55:02;;;;;;;29.40;15.07;;;2.30;99.90;;;;;;5053064;28;20451;-77
2022/12/04 12:57:34;;;;;;;27.40;13.70;;;2.40;99.90;;;;;;5052665;28;20446;-74
2022/12/04 13:00:06;;;;;;;25.83;13.53;;;2.40;99.90;;;;;;5052567;28;20486;-83
2022/12/04 13:02:40;;;;;;;27.57;14.10;;;2.40;99.90;;;;;;5051380;28;20450;-75
2022/12/04 13:05:13;;;;;;;32.87;14.07;;;2.30;99.90;;;;;;5052205;28;20457;-75
2022/12/04 13:07:47;;;;;;;27.80;12.40;;;2.20;99.90;;;;;;5052682;28;20445;-78
2022/12/04 13:10:19;;;;;;;23.63;12.23;;;2.20;99.90;;;;;;5052478;28;20476;-74
2022/12/04 13:12:52;;;;;;;23.07;11.87;;;2.20;99.90;;;;;;5052618;28;20439;-83
2022/12/04 13:15:21;;;;;;;24.47;11.43;;;2.20;99.90;;;;;;5052725;28;20949;-73
2022/12/04 13:17:53;;;;;;;27.17;13.53;;;2.20;99.90;;;;;;5052316;28;20451;-73
2022/12/04 13:20:24;;;;;;;27.70;14.07;;;2.20;99.90;;;;;;5052735;28;20490;-75
2022/12/04 13:23:05;;;;;;;25.77;16.50;;;2.20;99.90;;;;;;5052629;28;20458;-81
2022/12/04 13:25:43;;;;;;;22.77;13.47;;;2.40;99.90;;;;;;5052581;28;20454;-75
2022/12/04 13:28:24;;;;;;;32.87;16.07;;;2.30;99.90;;;;;;5053532;28;20430;-74
2022/12/04 13:30:57;;;;;;;30.00;13.43;;;2.40;99.90;;;;;;5057518;28;20486;-74
2022/12/04 13:33:40;;;;;;;22.57;13.10;;;2.20;99.90;;;;;;5063790;28;20478;-75
2022/12/04 13:36:17;;;;;;;24.30;11.90;;;2.30;99.90;;;;;;5059215;28;20442;-73
2022/12/04 13:39:00;;;;;;;19.03;10.90;;;2.20;99.90;;;;;;5056271;28;20803;-74
2022/12/04 13:41:28;;;;;;;20.93;11.90;;;2.10;99.90;;;;;;5055797;28;20493;-75
2022/12/04 13:43:56;;;;;;;24.57;12.17;;;2.10;99.90;;;;;;5056179;28;20552;-71
2022/12/04 13:46:28;;;;;;;24.83;12.70;;;2.20;99.90;;;;;;5052721;28;20458;-80